createdAt,value
2019-01-04T00:00:10.006Z,46.92
2019-01-04T00:02:35.994Z,46.84
2019-01-04T00:05:01.975Z,46.73
2019-01-04T00:07:28.001Z,46.77
2019-01-04T00:09:54.035Z,46.66
2019-01-04T00:12:20.014Z,46.66
2019-01-04T00:14:45.998Z,46.51
2019-01-04T00:17:12.020Z,46.60
2019-01-04T00:19:38.023Z,46.51
2019-01-04T00:22:03.984Z,46.52
2019-01-04T00:24:30.045Z,46.48
2019-01-04T00:26:55.985Z,46.51
2019-01-04T00:29:21.980Z,46.46
2019-01-04T00:31:48.015Z,46.29
2019-01-04T00:34:13.994Z,46.49
2019-01-04T00:36:39.967Z,46.38
2019-01-04T00:39:05.989Z,46.42
2019-01-04T00:41:31.983Z,46.41
2019-01-04T00:43:57.949Z,46.25
2019-01-04T00:46:23.981Z,46.32
2019-01-04T00:48:49.980Z,46.34
2019-01-04T00:51:15.939Z,46.35
2019-01-04T00:53:41.973Z,46.30
2019-01-04T00:56:07.965Z,46.32
2019-01-04T00:58:33.944Z,46.22
2019-01-04T01:00:59.961Z,46.17
2019-01-04T01:03:25.971Z,46.26
2019-01-04T01:05:51.941Z,46.16
2019-01-04T01:08:17.957Z,46.10
2019-01-04T01:10:43.948Z,46.21
2019-01-04T01:13:09.955Z,46.14
2019-01-04T01:15:35.946Z,46.11
2019-01-04T01:18:01.924Z,46.06
2019-01-04T01:20:27.942Z,46.07
2019-01-04T01:22:53.920Z,46.14
2019-01-04T01:25:19.933Z,46.01
2019-01-04T01:27:45.922Z,46.02
2019-01-04T01:30:11.915Z,46.11
2019-01-04T01:32:37.934Z,46.05
2019-01-04T01:35:03.922Z,46.04
2019-01-04T01:37:29.909Z,46.02
2019-01-04T01:39:55.936Z,46.06
2019-01-04T01:42:21.924Z,46.04
2019-01-04T01:44:47.886Z,46.09
2019-01-04T01:47:13.909Z,45.91
2019-01-04T01:49:39.886Z,46.05
2019-01-04T01:52:05.914Z,45.92
2019-01-04T01:54:31.901Z,45.87
2019-01-04T01:56:57.892Z,45.84
2019-01-04T01:59:23.906Z,45.89
2019-01-04T02:01:49.888Z,45.88
2019-01-04T02:04:15.852Z,45.98
2019-01-04T02:06:41.855Z,45.80
2019-01-04T02:09:07.826Z,45.79
2019-01-04T02:11:33.801Z,45.83
2019-01-04T02:13:59.816Z,45.87
2019-01-04T02:16:25.788Z,45.63
2019-01-04T02:18:51.774Z,45.74
2019-01-04T02:21:17.794Z,45.87
2019-01-04T02:23:43.788Z,45.76
2019-01-04T02:26:09.764Z,45.72
2019-01-04T02:28:35.795Z,45.81
2019-01-04T02:31:01.767Z,45.75
2019-01-04T02:33:27.751Z,45.76
2019-01-04T02:35:53.772Z,45.66
2019-01-04T02:38:19.735Z,45.69
2019-01-04T02:40:45.731Z,45.65
2019-01-04T02:43:11.739Z,45.71
2019-01-04T02:45:37.707Z,45.65
2019-01-04T02:48:03.699Z,45.63
2019-01-04T02:50:29.717Z,45.66
2019-01-04T02:52:55.681Z,45.66
2019-01-04T02:55:21.646Z,45.59
2019-01-04T02:57:47.648Z,45.59
2019-01-04T03:00:13.682Z,45.53
2019-01-04T03:02:39.677Z,45.54
2019-01-04T03:05:05.633Z,45.63
2019-01-04T03:07:31.655Z,45.53
2019-01-04T03:09:57.664Z,45.45
2019-01-04T03:12:23.654Z,45.41
2019-01-04T03:14:49.698Z,45.54
2019-01-04T03:17:15.662Z,45.49
2019-01-04T03:19:41.660Z,45.55
2019-01-04T03:22:07.673Z,45.55
2019-01-04T03:24:33.674Z,45.50
2019-01-04T03:26:59.670Z,45.37
2019-01-04T03:29:25.711Z,45.52
2019-01-04T03:31:51.668Z,45.14
2019-01-04T03:34:17.656Z,45.48
2019-01-04T03:36:43.658Z,45.46
2019-01-04T03:39:09.643Z,45.56
2019-01-04T03:41:35.669Z,45.44
2019-01-04T03:44:01.668Z,45.51
2019-01-04T03:46:27.634Z,45.45
2019-01-04T03:48:53.663Z,45.33
2019-01-04T03:51:19.629Z,45.38
2019-01-04T03:53:45.671Z,45.37
2019-01-04T03:56:11.632Z,45.44
2019-01-04T03:58:37.639Z,45.35
2019-01-04T04:01:03.642Z,45.49
2019-01-04T04:03:29.624Z,45.33
2019-01-04T04:05:55.590Z,45.37
2019-01-04T04:08:21.636Z,45.38
2019-01-04T04:10:47.599Z,45.38
2019-01-04T04:13:13.578Z,45.35
2019-01-04T04:15:39.608Z,45.35
2019-01-04T04:18:05.591Z,45.37
2019-01-04T04:20:31.556Z,45.30
2019-01-04T04:22:57.599Z,45.37
2019-01-04T04:25:23.562Z,45.27
2019-01-04T04:27:49.543Z,45.32
2019-01-04T04:30:15.586Z,45.17
2019-01-04T04:32:41.583Z,45.33
2019-01-04T04:35:07.559Z,45.23
2019-01-04T04:37:33.591Z,45.29
2019-01-04T04:39:59.585Z,45.27
2019-01-04T04:42:25.606Z,45.08
2019-01-04T04:44:51.593Z,45.26
2019-01-04T04:47:17.569Z,45.24
2019-01-04T04:49:43.592Z,45.23
2019-01-04T04:52:09.587Z,45.37
2019-01-04T04:54:35.576Z,45.40
2019-01-04T04:57:01.614Z,45.28
2019-01-04T04:59:27.621Z,45.46
2019-01-04T05:01:53.661Z,45.44
2019-01-04T05:04:19.633Z,45.50
2019-01-04T05:06:45.602Z,45.56
2019-01-04T05:09:11.623Z,45.34
2019-01-04T05:11:37.678Z,45.61
2019-01-04T05:14:03.693Z,45.54
2019-01-04T05:16:29.882Z,45.68
2019-01-04T05:18:55.866Z,45.64
2019-01-04T05:21:21.860Z,45.53
2019-01-04T05:23:47.913Z,45.78
2019-01-04T05:26:13.916Z,45.80
2019-01-04T05:28:39.891Z,45.80
2019-01-04T05:31:05.913Z,45.67
2019-01-04T05:33:31.991Z,45.87
2019-01-04T05:35:58.023Z,45.85
2019-01-04T05:38:23.958Z,45.81
2019-01-04T05:40:49.997Z,45.47
2019-01-04T05:43:16.011Z,45.26
2019-01-04T05:45:41.999Z,45.16
2019-01-04T05:48:08.013Z,45.22
2019-01-04T05:50:34.013Z,44.98
2019-01-04T05:52:59.994Z,45.18
2019-01-04T05:55:25.993Z,45.21
2019-01-04T05:57:52.001Z,45.04
2019-01-04T06:00:17.980Z,45.07
2019-01-04T06:02:43.959Z,45.20
2019-01-04T06:05:09.982Z,45.29
2019-01-04T06:07:35.995Z,45.46
2019-01-04T06:10:01.959Z,45.42
2019-01-04T06:12:28.260Z,45.39
2019-01-04T06:14:54.222Z,45.45
2019-01-04T06:17:20.218Z,45.42
2019-01-04T06:19:46.266Z,45.36
2019-01-04T06:22:12.246Z,45.33
2019-01-04T06:24:38.225Z,45.20
2019-01-04T06:27:04.251Z,45.30
2019-01-04T06:29:30.225Z,45.32
2019-01-04T06:31:56.271Z,45.34
2019-01-04T06:34:22.248Z,45.26
2019-01-04T06:36:48.261Z,45.19
2019-01-04T06:39:14.265Z,45.18
2019-01-04T06:41:40.265Z,45.05
2019-01-04T06:44:06.229Z,45.07
2019-01-04T06:46:32.306Z,45.00
2019-01-04T06:48:58.286Z,44.69
2019-01-04T06:51:27.773Z,44.71
2019-01-04T06:53:50.376Z,44.51
2019-01-04T06:56:16.370Z,44.61
2019-01-04T06:58:42.343Z,44.67
2019-01-04T07:01:08.391Z,44.86
2019-01-04T07:03:34.361Z,44.94
2019-01-04T07:06:00.346Z,45.12
2019-01-04T07:08:26.365Z,44.97
2019-01-04T07:10:52.341Z,45.19
2019-01-04T07:13:18.330Z,45.20
2019-01-04T07:15:44.336Z,45.31
2019-01-04T07:18:10.320Z,45.33
2019-01-04T07:20:36.307Z,45.45
2019-01-04T07:23:02.343Z,45.44
2019-01-04T07:25:28.360Z,45.53
2019-01-04T07:27:54.349Z,45.58
2019-01-04T07:30:20.391Z,45.42
2019-01-04T07:32:46.382Z,45.62
2019-01-04T07:35:12.369Z,45.68
2019-01-04T07:37:38.427Z,45.67
2019-01-04T07:40:04.403Z,45.76
2019-01-04T07:42:30.377Z,45.68
2019-01-04T07:44:56.416Z,45.71
2019-01-04T07:47:22.422Z,45.77
2019-01-04T07:49:48.401Z,45.83
2019-01-04T07:52:14.428Z,45.84
2019-01-04T07:54:40.513Z,45.82
2019-01-04T07:57:06.520Z,45.77
2019-01-04T07:59:32.516Z,45.62
2019-01-04T08:01:58.554Z,45.79
2019-01-04T08:04:24.556Z,45.86
2019-01-04T08:06:50.549Z,45.82
2019-01-04T08:09:16.593Z,45.79
2019-01-04T08:11:42.582Z,45.83
2019-01-04T08:14:08.574Z,45.88
2019-01-04T08:16:34.589Z,45.81
2019-01-04T08:19:00.578Z,45.96
2019-01-04T08:21:26.561Z,45.96
2019-01-04T08:23:52.615Z,46.02
2019-01-04T08:26:18.591Z,45.96
2019-01-04T08:28:44.559Z,46.05
2019-01-04T08:31:10.581Z,45.86
2019-01-04T08:33:36.587Z,45.91
2019-01-04T08:36:02.553Z,46.07
2019-01-04T08:38:28.581Z,46.09
2019-01-04T08:40:54.551Z,45.87
2019-01-04T08:43:20.527Z,46.04
2019-01-04T08:45:46.550Z,46.05
2019-01-04T08:48:12.525Z,46.15
2019-01-04T08:50:38.555Z,46.04
2019-01-04T08:53:04.552Z,46.10
2019-01-04T08:55:30.529Z,46.00
2019-01-04T08:57:56.555Z,45.85
2019-01-04T09:00:22.538Z,46.01
2019-01-04T09:02:48.513Z,45.89
2019-01-04T09:05:14.533Z,45.92
2019-01-04T09:07:40.521Z,45.96
2019-01-04T09:10:07.825Z,45.78
2019-01-04T09:12:32.513Z,45.91
2019-01-04T09:14:58.506Z,46.11
2019-01-04T09:17:24.470Z,45.97
2019-01-04T09:19:50.484Z,46.04
2019-01-04T09:22:16.480Z,46.03
2019-01-04T09:24:42.494Z,46.08
2019-01-04T09:27:08.502Z,46.06
2019-01-04T09:29:34.500Z,46.21
2019-01-04T09:32:00.459Z,46.12
2019-01-04T09:34:26.496Z,46.27
2019-01-04T09:36:52.475Z,46.13
2019-01-04T09:39:18.465Z,46.24
2019-01-04T09:41:44.490Z,46.29
2019-01-04T09:44:10.456Z,46.33
2019-01-04T09:46:36.463Z,46.44
2019-01-04T09:49:02.468Z,46.48
2019-01-04T09:51:28.471Z,46.46
2019-01-04T09:53:54.454Z,46.55
2019-01-04T09:56:20.493Z,46.63
2019-01-04T09:58:46.468Z,46.71
2019-01-04T10:01:12.485Z,46.76
2019-01-04T10:03:38.513Z,46.81
2019-01-04T10:06:04.506Z,46.85
2019-01-04T10:08:30.501Z,46.96
2019-01-04T10:10:56.521Z,46.98
2019-01-04T10:13:22.503Z,47.01
2019-01-04T10:15:48.487Z,46.93
2019-01-04T10:18:14.520Z,46.83
2019-01-04T10:20:40.498Z,46.83
2019-01-04T10:23:06.473Z,46.74
2019-01-04T10:25:32.519Z,46.67
2019-01-04T10:27:58.535Z,46.62
2019-01-04T10:30:24.546Z,46.58
2019-01-04T10:32:50.574Z,46.64
2019-01-04T10:35:16.563Z,46.59
2019-01-04T10:37:42.532Z,46.68
2019-01-04T10:40:11.108Z,46.62
2019-01-04T10:42:34.542Z,46.74
2019-01-04T10:45:00.525Z,46.85
2019-01-04T10:47:26.561Z,46.94
2019-01-04T10:49:52.552Z,46.97
2019-01-04T10:52:18.530Z,47.00
2019-01-04T10:54:44.548Z,47.06
2019-01-04T10:57:10.533Z,47.07
2019-01-04T10:59:36.501Z,47.10
2019-01-04T11:02:02.524Z,47.14
2019-01-04T11:04:28.518Z,47.13
2019-01-04T11:06:54.507Z,47.17
2019-01-04T11:09:20.537Z,47.19
2019-01-04T11:11:46.558Z,47.22
2019-01-04T11:14:12.555Z,47.20
2019-01-04T11:16:38.537Z,47.25
2019-01-04T11:19:04.713Z,47.26
2019-01-04T11:21:30.753Z,47.29
2019-01-04T11:23:56.733Z,47.33
2019-01-04T11:26:22.706Z,47.34
2019-01-04T11:28:48.732Z,47.35
2019-01-04T11:31:14.704Z,47.34
2019-01-04T11:33:40.685Z,47.37
2019-01-04T11:36:06.712Z,47.34
2019-01-04T11:38:32.696Z,47.35
2019-01-04T11:40:58.686Z,47.32
2019-01-04T11:43:24.707Z,47.35
2019-01-04T11:45:50.704Z,47.36
2019-01-04T11:48:16.681Z,47.34
2019-01-04T11:50:42.703Z,47.37
2019-01-04T11:53:08.721Z,47.37
2019-01-04T11:55:34.708Z,47.34
2019-01-04T11:58:00.738Z,47.38
2019-01-04T12:00:26.713Z,47.34
2019-01-04T12:02:52.695Z,47.34
2019-01-04T12:05:18.725Z,47.33
2019-01-04T12:07:44.732Z,47.38
2019-01-04T12:10:10.703Z,47.28
2019-01-04T12:12:36.957Z,47.32
2019-01-04T12:15:02.920Z,47.36
2019-01-04T12:17:28.925Z,47.36
2019-01-04T12:19:55.126Z,47.35
2019-01-04T12:22:21.147Z,47.33
2019-01-04T12:24:47.127Z,47.35
2019-01-04T12:27:13.116Z,47.33
2019-01-04T12:29:39.143Z,47.33
2019-01-04T12:32:05.128Z,47.29
2019-01-04T12:34:31.116Z,47.32
2019-01-04T12:36:57.142Z,47.30
2019-01-04T12:39:23.116Z,47.30
2019-01-04T12:41:49.093Z,47.21
2019-01-04T12:44:15.114Z,47.30
2019-01-04T12:46:41.086Z,47.29
2019-01-04T12:49:07.097Z,47.24
2019-01-04T12:51:33.097Z,47.25
2019-01-04T12:53:59.122Z,47.25
2019-01-04T12:56:25.196Z,47.22
2019-01-04T12:58:51.230Z,47.26
2019-01-04T13:01:17.234Z,47.25
2019-01-04T13:03:43.236Z,47.22
2019-01-04T13:06:09.520Z,47.21
2019-01-04T13:08:35.491Z,47.15
2019-01-04T13:11:01.553Z,47.22
2019-01-04T13:13:27.557Z,47.13
2019-01-04T13:15:53.523Z,47.14
2019-01-04T13:18:19.536Z,47.15
2019-01-04T13:20:45.500Z,47.12
2019-01-04T13:23:11.483Z,47.07
2019-01-04T13:25:37.493Z,47.08
2019-01-04T13:28:03.489Z,47.09
2019-01-04T13:30:29.454Z,47.03
2019-01-04T13:32:55.470Z,47.03
2019-01-04T13:35:21.453Z,46.96
2019-01-04T13:37:47.414Z,47.00
2019-01-04T13:40:13.434Z,46.94
2019-01-04T13:42:39.417Z,46.95
2019-01-04T13:45:05.453Z,46.91
2019-01-04T13:47:32.341Z,46.83
2019-01-04T13:49:57.418Z,46.80
2019-01-04T13:52:23.476Z,46.79
2019-01-04T13:54:49.427Z,46.78
2019-01-04T13:57:15.405Z,46.75
2019-01-04T13:59:41.486Z,46.73
2019-01-04T14:02:07.450Z,46.68
2019-01-04T14:04:33.437Z,46.63
2019-01-04T14:06:59.465Z,46.65
2019-01-04T14:09:25.448Z,46.63
2019-01-04T14:11:51.426Z,46.63
2019-01-04T14:14:17.462Z,46.61
2019-01-04T14:16:43.427Z,46.56
2019-01-04T14:19:09.410Z,46.51
2019-01-04T14:21:35.438Z,46.48
2019-01-04T14:24:01.430Z,46.59
2019-01-04T14:26:27.408Z,46.58
2019-01-04T14:28:53.523Z,46.56
2019-01-04T14:31:19.517Z,46.62
2019-01-04T14:33:45.505Z,46.56
2019-01-04T14:36:11.517Z,46.48
2019-01-04T14:38:37.521Z,46.46
2019-01-04T14:41:03.488Z,46.53
2019-01-04T14:43:29.537Z,46.46
2019-01-04T14:45:55.506Z,46.46
2019-01-04T14:48:21.530Z,46.40
2019-01-04T14:50:47.539Z,46.41
2019-01-04T14:53:13.521Z,46.34
2019-01-04T14:55:39.515Z,46.23
2019-01-04T14:58:05.555Z,46.46
2019-01-04T15:00:31.548Z,46.33
2019-01-04T15:02:57.528Z,46.43
2019-01-04T15:05:23.542Z,46.23
2019-01-04T15:07:49.533Z,46.30
2019-01-04T15:10:15.526Z,46.26
2019-01-04T15:12:41.652Z,46.15
2019-01-04T15:15:07.635Z,46.00
2019-01-04T15:17:33.663Z,45.94
2019-01-04T15:19:59.663Z,45.95
2019-01-04T15:22:25.674Z,45.89
2019-01-04T15:24:51.676Z,45.65
2019-01-04T15:27:17.711Z,45.43
2019-01-04T15:29:43.683Z,45.58
2019-01-04T15:32:09.678Z,45.57
2019-01-04T15:34:35.713Z,45.52
2019-01-04T15:37:01.713Z,45.34
2019-01-04T15:39:27.690Z,45.26
2019-01-04T15:41:53.694Z,45.32
2019-01-04T15:44:19.674Z,45.31
2019-01-04T15:46:45.746Z,45.27
2019-01-04T15:49:11.887Z,45.33
2019-01-04T15:51:37.873Z,45.47
2019-01-04T15:54:03.850Z,45.52
2019-01-04T15:56:29.919Z,45.68
2019-01-04T15:58:55.896Z,45.70
2019-01-04T16:01:21.908Z,45.90
2019-01-04T16:03:48.073Z,46.02
2019-01-04T16:06:14.217Z,46.03
2019-01-04T16:08:40.184Z,46.04
2019-01-04T16:11:06.456Z,46.02
2019-01-04T16:13:32.461Z,46.16
2019-01-04T16:15:58.502Z,46.17
2019-01-04T16:18:24.499Z,46.26
2019-01-04T16:20:50.485Z,46.27
2019-01-04T16:23:16.530Z,46.35
2019-01-04T16:25:42.623Z,46.29
2019-01-04T16:28:08.633Z,46.41
2019-01-04T16:30:34.750Z,46.39
2019-01-04T16:33:00.738Z,46.36
2019-01-04T16:35:26.719Z,46.41
2019-01-04T16:37:52.734Z,46.39
2019-01-04T16:40:18.715Z,46.29
2019-01-04T16:42:44.710Z,46.48
2019-01-04T16:45:10.747Z,46.48
2019-01-04T16:47:36.751Z,46.53
2019-01-04T16:50:02.728Z,46.59
2019-01-04T16:52:28.781Z,46.59
2019-01-04T16:54:54.746Z,46.59
2019-01-04T16:57:20.764Z,46.60
2019-01-04T16:59:46.772Z,46.67
2019-01-04T17:02:12.754Z,46.65
2019-01-04T17:04:38.774Z,46.65
2019-01-04T17:07:04.810Z,46.71
2019-01-04T17:09:30.782Z,46.72
2019-01-04T17:11:56.891Z,46.69
2019-01-04T17:14:22.878Z,46.74
2019-01-04T17:16:48.894Z,46.80
2019-01-04T17:19:14.900Z,46.77
2019-01-04T17:21:40.900Z,46.77
2019-01-04T17:24:06.929Z,46.83
2019-01-04T17:26:33.412Z,46.79
2019-01-04T17:28:59.396Z,46.84
2019-01-04T17:31:25.398Z,46.84
2019-01-04T17:33:51.399Z,46.84
2019-01-04T17:36:17.407Z,46.88
2019-01-04T17:38:44.232Z,46.86
2019-01-04T17:41:10.250Z,46.90
2019-01-04T17:43:36.216Z,46.87
2019-01-04T17:46:02.250Z,46.86
2019-01-04T17:48:28.256Z,46.90
2019-01-04T17:50:54.266Z,46.89
2019-01-04T17:53:20.268Z,46.86
2019-01-04T17:55:46.307Z,46.84
2019-01-04T17:58:12.275Z,46.85
2019-01-04T18:00:38.282Z,46.88
2019-01-04T18:03:04.296Z,46.84
2019-01-04T18:05:30.276Z,46.89
2019-01-04T18:07:56.261Z,46.93
2019-01-04T18:10:22.269Z,46.98
2019-01-04T18:12:48.270Z,47.06
2019-01-04T18:15:14.340Z,47.12
2019-01-04T18:17:40.324Z,47.20
2019-01-04T18:20:10.948Z,47.20
2019-01-04T18:22:34.528Z,47.22
2019-01-04T18:25:00.618Z,47.23
2019-01-04T18:27:26.511Z,47.21
2019-01-04T18:29:52.548Z,47.21
2019-01-04T18:32:18.514Z,47.18
2019-01-04T18:34:44.566Z,47.20
2019-01-04T18:37:10.538Z,47.27
2019-01-04T18:39:36.646Z,47.23
2019-01-04T18:42:02.687Z,47.25
2019-01-04T18:44:28.665Z,47.20
2019-01-04T18:46:54.647Z,47.20
2019-01-04T18:49:20.901Z,47.28
2019-01-04T18:51:46.864Z,47.26
2019-01-04T18:54:12.864Z,47.32
2019-01-04T18:56:38.892Z,47.31
2019-01-04T18:59:04.894Z,47.42
2019-01-04T19:01:30.870Z,47.58
2019-01-04T19:03:56.883Z,47.68
2019-01-04T19:06:22.881Z,47.79
2019-01-04T19:08:48.873Z,47.87
2019-01-04T19:11:14.912Z,47.96
2019-01-04T19:13:40.867Z,48.14
2019-01-04T19:16:06.881Z,48.01
2019-01-04T19:18:32.864Z,48.01
2019-01-04T19:20:58.855Z,47.98
2019-01-04T19:23:24.836Z,47.89
2019-01-04T19:25:50.862Z,47.92
2019-01-04T19:28:16.858Z,47.84
2019-01-04T19:30:42.868Z,47.83
2019-01-04T19:33:08.942Z,47.79
2019-01-04T19:35:34.926Z,47.78
2019-01-04T19:38:00.946Z,47.73
2019-01-04T19:40:26.927Z,47.76
2019-01-04T19:42:52.901Z,47.94
2019-01-04T19:45:18.941Z,48.20
2019-01-04T19:47:44.904Z,48.17
2019-01-04T19:50:10.895Z,48.16
2019-01-04T19:52:36.903Z,48.14
2019-01-04T19:55:05.086Z,48.17
2019-01-04T19:57:31.069Z,48.17
2019-01-04T19:59:57.093Z,48.16
2019-01-04T20:02:23.092Z,48.22
2019-01-04T20:04:50.452Z,48.29
2019-01-04T20:07:15.098Z,48.28
2019-01-04T20:09:41.068Z,48.32
2019-01-04T20:12:07.096Z,48.29
2019-01-04T20:14:33.083Z,48.33
2019-01-04T20:16:59.086Z,48.35
2019-01-04T20:19:25.101Z,48.45
2019-01-04T20:21:51.115Z,48.41
2019-01-04T20:24:17.126Z,48.38
2019-01-04T20:26:43.206Z,48.37
2019-01-04T20:29:09.416Z,48.42
2019-01-04T20:31:36.610Z,48.39
2019-01-04T20:34:01.393Z,48.42
2019-01-04T20:36:27.419Z,48.40
2019-01-04T20:38:53.416Z,48.42
2019-01-04T20:41:19.389Z,48.43
2019-01-04T20:43:45.410Z,48.41
2019-01-04T20:46:11.405Z,48.38
2019-01-04T20:48:37.394Z,48.40
2019-01-04T20:51:03.421Z,48.42
2019-01-04T20:53:29.410Z,48.37
2019-01-04T20:55:55.412Z,48.34
2019-01-04T20:58:21.433Z,48.31
2019-01-04T21:00:47.413Z,48.29
2019-01-04T21:03:13.441Z,48.27
2019-01-04T21:05:39.542Z,48.16
2019-01-04T21:08:05.520Z,48.19
2019-01-04T21:10:31.548Z,48.07
2019-01-04T21:12:57.536Z,48.07
2019-01-04T21:15:23.528Z,48.16
2019-01-04T21:17:49.545Z,48.31
2019-01-04T21:20:15.555Z,48.35
2019-01-04T21:22:41.513Z,48.32
2019-01-04T21:25:07.518Z,48.26
2019-01-04T21:27:33.511Z,48.20
2019-01-04T21:29:59.490Z,48.09
2019-01-04T21:32:25.519Z,48.06
2019-01-04T21:34:51.809Z,47.96
2019-01-04T21:37:17.782Z,47.82
2019-01-04T21:39:43.759Z,47.81
2019-01-04T21:42:09.763Z,47.74
2019-01-04T21:44:35.763Z,47.56
2019-01-04T21:47:01.776Z,47.62
2019-01-04T21:49:27.757Z,47.46
2019-01-04T21:51:53.742Z,47.54
2019-01-04T21:54:19.781Z,47.53
2019-01-04T21:56:45.839Z,47.50
2019-01-04T21:59:11.813Z,47.61
2019-01-04T22:01:37.823Z,47.54
2019-01-04T22:04:03.846Z,47.55
2019-01-04T22:06:29.824Z,47.54
2019-01-04T22:08:55.872Z,47.60
2019-01-04T22:11:21.841Z,47.50
2019-01-04T22:13:47.805Z,47.57
2019-01-04T22:16:13.869Z,47.61
2019-01-04T22:18:39.865Z,47.55
2019-01-04T22:21:05.875Z,47.52
2019-01-04T22:23:31.871Z,47.54
2019-01-04T22:25:57.856Z,47.44
2019-01-04T22:28:23.890Z,47.50
2019-01-04T22:30:49.909Z,47.56
2019-01-04T22:33:15.941Z,47.57
2019-01-04T22:35:41.920Z,47.53
2019-01-04T22:38:07.896Z,47.53
2019-01-04T22:40:33.924Z,47.51
2019-01-04T22:42:59.959Z,47.46
2019-01-04T22:45:25.930Z,47.48
2019-01-04T22:47:51.918Z,47.36
2019-01-04T22:50:21.005Z,47.33
2019-01-04T22:52:43.913Z,47.32
2019-01-04T22:55:09.904Z,47.26
2019-01-04T22:57:36.077Z,47.15
2019-01-04T23:00:02.105Z,47.24
2019-01-04T23:02:28.078Z,47.14
2019-01-04T23:04:54.116Z,47.04
2019-01-04T23:07:20.146Z,47.14
2019-01-04T23:09:46.113Z,47.02
2019-01-04T23:12:12.141Z,47.12
2019-01-04T23:14:38.118Z,47.16
2019-01-04T23:17:04.097Z,47.17
2019-01-04T23:19:30.129Z,47.26
2019-01-04T23:21:56.191Z,47.24
2019-01-04T23:24:22.206Z,47.13
2019-01-04T23:26:48.184Z,47.25
2019-01-04T23:29:14.152Z,47.17
2019-01-04T23:31:40.174Z,47.10
2019-01-04T23:34:06.159Z,47.10
2019-01-04T23:36:32.152Z,46.98
2019-01-04T23:38:58.138Z,47.17
2019-01-04T23:41:24.127Z,47.22
2019-01-04T23:43:50.159Z,47.15
2019-01-04T23:46:16.130Z,47.17
2019-01-04T23:48:42.113Z,46.97
2019-01-04T23:51:08.109Z,46.96
2019-01-04T23:53:34.079Z,47.02
2019-01-04T23:56:00.109Z,47.10
2019-01-04T23:58:26.074Z,46.99
